Terminal Aerodrome Forecast
Issued by NWS Pocatello, ID

Home | Current Version | Previous Version | Text Only | Print | Product List | Glossary On
Versions: 1 2 3 4 5 6 7 8 9 10 11 12 13 14 15 16 17 18
000
FTUS45 KPIH 271700
TAFPIH
TAF
KPIH 271729Z 2718/2818 20010KT P6SM BKN120 OVC200
     FM271900 20015KT P6SM SCT080 BKN120 OVC200
     FM280200 20011KT P6SM SCT150 BKN200
     FM281500 20015KT P6SM BKN150=

USA.gov is the U.S. government's official web portal to all federal, state and local government web resources and services.